createdAt,value
2018-07-15T00:00:13.826Z,80.90
2018-07-15T00:02:42.785Z,81.60
2018-07-15T00:05:11.765Z,81.60
2018-07-15T00:07:40.680Z,81.50
2018-07-15T00:10:09.613Z,82.20
2018-07-15T00:12:38.519Z,82.10
2018-07-15T00:15:07.587Z,81.80
2018-07-15T00:17:36.580Z,82.60
2018-07-15T00:20:05.976Z,83.30
2018-07-15T00:22:34.928Z,83.20
2018-07-15T00:25:03.864Z,84.00
2018-07-15T00:27:32.751Z,85.40
2018-07-15T00:30:01.928Z,83.70
2018-07-15T00:32:30.797Z,84.50
2018-07-15T00:34:59.721Z,84.60
2018-07-15T00:37:28.721Z,84.80
2018-07-15T00:39:57.595Z,87.00
2018-07-15T00:42:26.600Z,86.40
2018-07-15T00:44:55.696Z,86.60
2018-07-15T00:47:24.611Z,87.00
2018-07-15T00:49:53.696Z,87.30
2018-07-15T00:52:22.667Z,87.50
2018-07-15T00:54:51.603Z,87.90
2018-07-15T00:57:20.832Z,87.70
2018-07-15T00:59:49.751Z,88.30
2018-07-15T01:02:18.684Z,88.70
2018-07-15T01:04:47.588Z,88.70
2018-07-15T01:07:16.544Z,88.70
2018-07-15T01:09:45.548Z,90.00
2018-07-15T01:12:14.467Z,89.50
2018-07-15T01:14:43.363Z,90.30
2018-07-15T01:17:12.299Z,90.00
2018-07-15T01:19:42.224Z,90.40
2018-07-15T01:24:39.886Z,90.70
2018-07-15T01:27:08.788Z,90.80
2018-07-15T01:29:37.899Z,90.90
2018-07-15T01:32:06.823Z,90.70
2018-07-15T01:34:35.788Z,90.80
2018-07-15T01:37:04.704Z,91.20
2018-07-15T01:39:33.573Z,91.50
2018-07-15T01:42:02.472Z,91.70
2018-07-15T01:44:31.382Z,91.40
2018-07-15T01:47:00.323Z,91.50
2018-07-15T01:49:29.273Z,91.90
2018-07-15T01:51:58.184Z,92.20
2018-07-15T01:54:27.096Z,92.10
2018-07-15T01:56:56.085Z,92.00
2018-07-15T01:59:25.125Z,92.20
2018-07-15T02:01:54.029Z,92.30
2018-07-15T02:04:22.884Z,92.30
2018-07-15T02:06:51.759Z,92.30
2018-07-15T02:09:20.779Z,92.40
2018-07-15T02:11:49.699Z,92.30
2018-07-15T02:14:18.619Z,92.60
2018-07-15T02:16:47.591Z,92.70
2018-07-15T02:19:16.507Z,93.00
2018-07-15T02:21:46.448Z,93.10
2018-07-15T02:24:15.576Z,93.20
2018-07-15T02:26:44.504Z,93.00
2018-07-15T02:29:13.504Z,93.80
2018-07-15T02:31:42.427Z,93.70
2018-07-15T02:34:11.335Z,93.40
2018-07-15T02:36:40.331Z,93.70
2018-07-15T02:39:09.177Z,93.60
2018-07-15T02:41:38.209Z,93.90
2018-07-15T02:44:07.140Z,93.50
2018-07-15T02:46:36.034Z,93.40
2018-07-15T02:49:05.156Z,93.40
2018-07-15T02:51:34.071Z,93.20
2018-07-15T02:54:03.076Z,93.60
2018-07-15T02:56:32.163Z,93.60
2018-07-15T02:59:01.001Z,94.10
2018-07-15T03:01:29.910Z,94.40
2018-07-15T03:03:58.832Z,93.80
2018-07-15T03:08:56.688Z,93.80
2018-07-15T03:11:25.576Z,94.30
2018-07-15T03:13:54.549Z,94.20
2018-07-15T03:16:23.480Z,94.20
2018-07-15T03:18:52.392Z,94.50
2018-07-15T03:21:21.343Z,94.30
2018-07-15T03:23:50.296Z,94.10
2018-07-15T03:26:19.208Z,94.70
2018-07-15T03:28:48.125Z,94.70
2018-07-15T03:31:16.987Z,94.80
2018-07-15T03:33:46.001Z,94.40
2018-07-15T03:36:14.920Z,94.90
2018-07-15T03:38:43.811Z,94.80
2018-07-15T03:41:12.955Z,94.80
2018-07-15T03:43:41.822Z,95.10
2018-07-15T03:46:10.768Z,95.00
2018-07-15T03:48:39.705Z,95.30
2018-07-15T03:53:37.161Z,95.50
2018-07-15T03:58:34.496Z,95.60
2018-07-15T04:01:03.423Z,95.20
2018-07-15T04:03:32.364Z,94.80
2018-07-15T04:06:01.373Z,94.60
2018-07-15T04:08:30.258Z,94.40
2018-07-15T04:10:59.228Z,93.60
2018-07-15T04:13:28.131Z,93.20
2018-07-15T04:15:57.018Z,92.70
2018-07-15T04:18:26.036Z,92.70
2018-07-15T04:20:55.019Z,92.60
2018-07-15T04:23:23.945Z,92.60
2018-07-15T04:25:52.827Z,92.60
2018-07-15T04:28:21.809Z,92.20
2018-07-15T04:30:50.635Z,91.90
2018-07-15T04:33:19.735Z,91.50
2018-07-15T04:35:48.631Z,91.30
2018-07-15T04:38:17.557Z,90.90
2018-07-15T04:40:46.447Z,90.70
2018-07-15T04:43:15.348Z,90.10
2018-07-15T04:45:44.240Z,90.10
2018-07-15T04:50:41.991Z,88.50
2018-07-15T04:53:10.957Z,87.40
2018-07-15T04:55:39.868Z,86.60
2018-07-15T04:58:08.744Z,85.00
2018-07-15T05:00:37.636Z,84.40
2018-07-15T05:03:06.523Z,84.50
2018-07-15T05:05:35.484Z,84.30
2018-07-15T05:08:04.370Z,83.20
2018-07-15T05:10:33.411Z,82.60
2018-07-15T05:13:02.330Z,81.50
2018-07-15T05:15:31.310Z,80.40
2018-07-15T05:18:00.172Z,80.10
2018-07-15T05:20:29.055Z,79.80
2018-07-15T05:22:58.043Z,79.50
2018-07-15T05:25:26.953Z,78.90
2018-07-15T05:27:56.004Z,78.50
2018-07-15T05:30:25.012Z,78.80
2018-07-15T05:32:53.945Z,79.30
2018-07-15T05:35:23.143Z,79.00
2018-07-15T05:37:52.171Z,78.40
2018-07-15T05:40:21.139Z,78.10
2018-07-15T05:42:50.141Z,77.00
2018-07-15T05:45:19.121Z,77.00
2018-07-15T05:47:48.200Z,77.30
2018-07-15T05:50:17.120Z,77.80
2018-07-15T05:52:45.997Z,77.80
2018-07-15T05:55:14.864Z,78.20
2018-07-15T05:57:43.829Z,77.70
2018-07-15T06:00:12.733Z,77.60
2018-07-15T06:02:41.733Z,77.60
2018-07-15T06:05:10.784Z,76.50
2018-07-15T06:07:39.677Z,76.00
2018-07-15T06:10:09.599Z,76.20
2018-07-15T06:12:38.479Z,75.50
2018-07-15T06:15:07.526Z,74.40
2018-07-15T06:17:36.432Z,73.90
2018-07-15T06:20:06.435Z,73.30
2018-07-15T06:22:35.394Z,72.30
2018-07-15T06:25:04.930Z,73.30
2018-07-15T06:27:33.816Z,73.30
2018-07-15T06:30:02.743Z,73.50
2018-07-15T06:32:31.612Z,73.80
2018-07-15T06:35:00.540Z,73.70
2018-07-15T06:37:29.752Z,72.10
2018-07-15T06:39:58.642Z,72.60
2018-07-15T06:42:27.517Z,72.70
2018-07-15T06:44:56.446Z,73.40
2018-07-15T06:47:25.471Z,73.60
2018-07-15T06:49:54.409Z,73.90
2018-07-15T06:52:23.328Z,74.60
2018-07-15T06:54:52.196Z,75.60
2018-07-15T06:57:21.113Z,74.50
2018-07-15T06:59:49.975Z,74.50
2018-07-15T07:02:18.898Z,75.60
2018-07-15T07:04:47.827Z,77.20
2018-07-15T07:07:16.798Z,76.50
2018-07-15T07:09:45.889Z,78.70
2018-07-15T07:12:14.876Z,79.00
2018-07-15T07:14:43.765Z,78.10
2018-07-15T07:19:41.441Z,78.80
2018-07-15T07:22:10.349Z,79.20
2018-07-15T07:24:39.247Z,79.20
2018-07-15T07:27:08.233Z,76.50
2018-07-15T07:29:37.147Z,77.30
2018-07-15T07:32:06.326Z,75.10
2018-07-15T07:34:35.361Z,74.50
2018-07-15T07:37:04.350Z,75.00
2018-07-15T07:39:33.699Z,76.20
2018-07-15T07:42:02.582Z,73.10
2018-07-15T07:44:31.502Z,72.90
2018-07-15T07:47:00.611Z,73.20
2018-07-15T07:49:29.604Z,72.00
2018-07-15T07:51:58.498Z,72.20
2018-07-15T07:54:27.428Z,71.50
2018-07-15T07:56:56.394Z,68.20
2018-07-15T07:59:25.855Z,68.50
2018-07-15T08:01:55.104Z,69.00
2018-07-15T08:04:23.999Z,70.40
2018-07-15T08:06:52.915Z,69.30
2018-07-15T08:09:21.835Z,69.50
2018-07-15T08:11:50.735Z,70.20
2018-07-15T08:14:19.680Z,69.40
2018-07-15T08:16:49.048Z,69.70
2018-07-15T08:19:17.943Z,70.40
2018-07-15T08:21:46.875Z,70.10
2018-07-15T08:24:15.760Z,70.70
2018-07-15T08:26:44.669Z,69.40
2018-07-15T08:29:13.567Z,70.40
2018-07-15T08:31:42.476Z,70.90
2018-07-15T08:34:11.395Z,70.80
2018-07-15T08:36:40.264Z,67.90
2018-07-15T08:39:09.172Z,68.80
2018-07-15T08:41:38.260Z,68.70
2018-07-15T08:44:07.094Z,69.30
2018-07-15T08:46:36.102Z,69.50
2018-07-15T08:49:05.062Z,65.00
2018-07-15T08:51:34.140Z,65.50
2018-07-15T08:54:03.092Z,66.10
2018-07-15T08:56:32.121Z,67.30
2018-07-15T08:59:01.029Z,64.60
2018-07-15T09:01:30.041Z,65.10
2018-07-15T09:03:59.071Z,64.80
2018-07-15T09:06:27.919Z,63.80
2018-07-15T09:08:56.844Z,63.10
2018-07-15T09:11:25.772Z,65.20
2018-07-15T09:13:54.692Z,65.50
2018-07-15T09:16:23.636Z,65.10
2018-07-15T09:18:52.526Z,65.30
2018-07-15T09:21:21.893Z,65.30
2018-07-15T09:23:50.885Z,63.70
2018-07-15T09:26:19.787Z,64.20
2018-07-15T09:28:48.981Z,64.10
2018-07-15T09:31:17.865Z,65.00
2018-07-15T09:33:47.072Z,63.90
2018-07-15T09:36:16.005Z,63.90
2018-07-15T09:38:44.924Z,62.80
2018-07-15T09:41:13.928Z,63.30
2018-07-15T09:43:42.795Z,62.30
2018-07-15T09:46:12.408Z,60.60
2018-07-15T09:48:41.332Z,61.70
2018-07-15T09:51:10.275Z,61.00
2018-07-15T09:53:39.219Z,61.50
2018-07-15T09:58:36.560Z,61.10
2018-07-15T10:01:05.580Z,60.90
2018-07-15T10:03:34.453Z,61.20
2018-07-15T10:06:03.344Z,60.90
2018-07-15T10:08:32.201Z,59.60
2018-07-15T10:13:29.645Z,60.70
2018-07-15T10:15:58.624Z,63.10
2018-07-15T10:18:27.516Z,61.20
2018-07-15T10:23:24.985Z,61.60
2018-07-15T10:25:53.859Z,60.60
2018-07-15T10:28:22.783Z,61.10
2018-07-15T10:30:51.744Z,61.20
2018-07-15T10:33:20.668Z,62.60
2018-07-15T10:35:49.563Z,62.90
2018-07-15T10:38:18.466Z,62.50
2018-07-15T10:40:47.408Z,62.10
2018-07-15T10:43:16.521Z,61.10
2018-07-15T10:45:45.379Z,63.00
2018-07-15T10:48:14.400Z,61.90
2018-07-15T10:50:43.368Z,61.20
2018-07-15T10:53:12.355Z,61.70
2018-07-15T10:55:41.304Z,62.30
2018-07-15T10:58:10.190Z,61.90
2018-07-15T11:00:39.104Z,60.70
2018-07-15T11:03:08.259Z,60.70
2018-07-15T11:05:37.160Z,61.00
2018-07-15T11:10:34.531Z,60.70
2018-07-15T11:13:03.458Z,59.80
2018-07-15T11:15:32.393Z,59.70
2018-07-15T11:18:01.327Z,58.80
2018-07-15T11:20:30.237Z,60.60
2018-07-15T11:22:59.156Z,58.50
2018-07-15T11:25:28.128Z,58.90
2018-07-15T11:27:57.158Z,58.80
2018-07-15T11:30:26.108Z,60.30
2018-07-15T11:32:55.002Z,59.60
2018-07-15T11:35:23.955Z,58.50
2018-07-15T11:37:52.876Z,58.90
2018-07-15T11:40:21.969Z,58.20
2018-07-15T11:42:51.426Z,58.00
2018-07-15T11:45:20.400Z,57.60
2018-07-15T11:47:49.482Z,58.60
2018-07-15T11:52:46.976Z,57.60
2018-07-15T11:57:44.357Z,57.30
2018-07-15T12:00:13.289Z,56.60
2018-07-15T12:02:42.309Z,57.70
2018-07-15T12:05:11.247Z,57.10
2018-07-15T12:07:40.355Z,56.80
2018-07-15T12:10:09.277Z,56.40
2018-07-15T12:12:38.599Z,56.70
2018-07-15T12:15:08.791Z,57.10
2018-07-15T12:17:37.725Z,57.10
2018-07-15T12:20:06.684Z,56.90
2018-07-15T12:22:35.749Z,56.50
2018-07-15T12:25:04.964Z,56.00
2018-07-15T12:30:02.464Z,56.20
2018-07-15T12:32:31.387Z,55.90
2018-07-15T12:35:00.512Z,55.70
2018-07-15T12:37:29.584Z,54.60
2018-07-15T12:39:58.600Z,55.60
2018-07-15T12:42:27.796Z,55.40
2018-07-15T12:44:56.752Z,56.90
2018-07-15T12:47:25.780Z,55.40
2018-07-15T12:49:54.880Z,56.00
2018-07-15T12:52:23.860Z,55.60
2018-07-15T12:54:52.751Z,54.90
2018-07-15T12:57:21.840Z,54.30
2018-07-15T12:59:50.812Z,54.80
2018-07-15T13:02:19.847Z,54.80
2018-07-15T13:04:48.825Z,55.50
2018-07-15T13:07:17.776Z,53.90
2018-07-15T13:09:46.762Z,54.60
2018-07-15T13:12:15.706Z,53.50
2018-07-15T13:14:44.600Z,54.40
2018-07-15T13:17:13.651Z,54.50
2018-07-15T13:19:43.996Z,54.80
2018-07-15T13:22:12.884Z,53.70
2018-07-15T13:24:41.847Z,53.90
2018-07-15T13:27:10.896Z,54.20
2018-07-15T13:29:39.905Z,53.70
2018-07-15T13:32:08.788Z,54.30
2018-07-15T13:34:37.688Z,53.10
2018-07-15T13:37:06.616Z,53.50
2018-07-15T13:39:35.512Z,53.20
2018-07-15T13:42:04.688Z,52.40
2018-07-15T13:44:33.793Z,51.90
2018-07-15T13:47:02.747Z,51.30
2018-07-15T13:49:31.698Z,52.90
2018-07-15T13:52:01.459Z,52.80
2018-07-15T13:54:30.457Z,52.40
2018-07-15T13:56:59.385Z,53.70
2018-07-15T13:59:28.695Z,53.00
2018-07-15T14:01:57.757Z,53.20
2018-07-15T14:04:26.976Z,54.30
2018-07-15T14:06:55.957Z,53.80
2018-07-15T14:09:24.876Z,52.40
2018-07-15T14:11:53.764Z,51.60
2018-07-15T14:14:22.663Z,52.50
2018-07-15T14:16:51.609Z,52.20
2018-07-15T14:19:20.644Z,51.00
2018-07-15T14:21:49.633Z,51.30
2018-07-15T14:24:18.556Z,52.40
2018-07-15T14:26:47.701Z,51.80
2018-07-15T14:29:16.651Z,51.50
2018-07-15T14:31:45.733Z,51.50
2018-07-15T14:36:42.997Z,51.40
2018-07-15T14:39:12.046Z,50.90
2018-07-15T14:41:40.981Z,51.10
2018-07-15T14:44:10.044Z,50.40
2018-07-15T14:49:07.591Z,50.80
2018-07-15T14:51:36.814Z,50.00
2018-07-15T14:54:05.946Z,50.00
2018-07-15T14:56:34.882Z,49.60
2018-07-15T14:59:03.891Z,51.10
2018-07-15T15:01:32.837Z,50.00
2018-07-15T15:04:01.762Z,50.10
2018-07-15T15:06:31.583Z,50.00
2018-07-15T15:09:00.558Z,50.40
2018-07-15T15:11:29.581Z,48.70
2018-07-15T15:13:58.660Z,49.10
2018-07-15T15:16:27.615Z,48.90
2018-07-15T15:18:56.613Z,48.90
2018-07-15T15:21:26.602Z,48.70
2018-07-15T15:23:55.539Z,49.20
2018-07-15T15:26:24.476Z,50.10
2018-07-15T15:28:53.406Z,49.30
2018-07-15T15:31:22.703Z,49.50
2018-07-15T15:33:51.665Z,49.80
2018-07-15T15:36:20.508Z,48.60
2018-07-15T15:38:49.434Z,49.60
2018-07-15T15:41:18.427Z,49.50
2018-07-15T15:43:47.342Z,49.50
2018-07-15T15:46:16.220Z,49.90
2018-07-15T15:48:45.084Z,49.40
2018-07-15T15:53:42.417Z,49.10
2018-07-15T15:58:39.979Z,49.00
2018-07-15T16:01:08.988Z,49.40
2018-07-15T16:03:37.863Z,49.50
2018-07-15T16:06:07.258Z,48.80
2018-07-15T16:08:36.177Z,49.40
2018-07-15T16:11:06.176Z,48.80
2018-07-15T16:13:35.052Z,49.10
2018-07-15T16:16:03.988Z,48.20
2018-07-15T16:18:32.867Z,48.30
2018-07-15T16:21:01.791Z,48.90
2018-07-15T16:23:31.176Z,49.20
2018-07-15T16:26:00.080Z,48.70
2018-07-15T16:28:29.040Z,48.70
2018-07-15T16:30:58.621Z,48.60
2018-07-15T16:33:27.543Z,49.00
2018-07-15T16:35:56.460Z,48.80
2018-07-15T16:38:25.600Z,48.90
2018-07-15T16:40:54.474Z,49.00
2018-07-15T16:43:23.485Z,49.10
2018-07-15T16:45:52.339Z,48.90
2018-07-15T16:48:21.401Z,49.00
2018-07-15T16:50:50.347Z,48.90
2018-07-15T16:53:19.313Z,49.30
2018-07-15T16:55:48.236Z,49.00
2018-07-15T16:58:17.383Z,49.70
2018-07-15T17:03:15.704Z,49.00
2018-07-15T17:05:44.468Z,49.00
2018-07-15T17:08:13.385Z,49.40
2018-07-15T17:10:42.401Z,48.90
2018-07-15T17:13:11.390Z,49.20
2018-07-15T17:15:40.386Z,48.90
2018-07-15T17:18:09.489Z,49.10
2018-07-15T17:20:38.490Z,48.90
2018-07-15T17:23:07.504Z,49.00
2018-07-15T17:25:36.547Z,48.70
2018-07-15T17:28:05.435Z,48.80
2018-07-15T17:30:34.301Z,48.60
2018-07-15T17:33:03.548Z,49.00
2018-07-15T17:35:32.577Z,48.60
2018-07-15T17:40:29.937Z,49.00
2018-07-15T17:42:59.028Z,48.30
2018-07-15T17:45:27.929Z,49.00
2018-07-15T17:47:56.901Z,49.00
2018-07-15T17:50:25.818Z,49.20
2018-07-15T17:52:54.667Z,49.00
2018-07-15T17:55:23.634Z,49.30
2018-07-15T17:57:52.592Z,49.10
2018-07-15T18:00:21.668Z,48.70
2018-07-15T18:02:50.620Z,49.30
2018-07-15T18:05:19.473Z,48.80
2018-07-15T18:07:48.395Z,48.70
2018-07-15T18:10:17.343Z,49.00
2018-07-15T18:12:46.253Z,49.10
2018-07-15T18:15:15.199Z,49.00
2018-07-15T18:17:44.136Z,49.20
2018-07-15T18:20:13.070Z,49.30
2018-07-15T18:22:42.006Z,49.50
2018-07-15T18:25:11.041Z,50.60
2018-07-15T18:27:40.004Z,50.10
2018-07-15T18:30:09.522Z,50.50
2018-07-15T18:32:38.711Z,49.80
2018-07-15T18:35:07.835Z,49.80
2018-07-15T18:37:36.826Z,49.80
2018-07-15T18:40:05.892Z,49.70
2018-07-15T18:42:35.349Z,49.70
2018-07-15T18:45:04.769Z,50.00
2018-07-15T18:47:33.687Z,50.20
2018-07-15T18:50:02.699Z,49.80
2018-07-15T18:52:31.624Z,50.70
2018-07-15T18:55:00.552Z,51.50
2018-07-15T18:57:29.485Z,50.70
2018-07-15T19:02:26.793Z,51.50
2018-07-15T19:04:55.904Z,51.70
2018-07-15T19:07:24.774Z,52.00
2018-07-15T19:09:54.041Z,51.70
2018-07-15T19:12:23.026Z,52.80
2018-07-15T19:14:51.877Z,53.50
2018-07-15T19:17:20.872Z,53.30
2018-07-15T19:19:50.304Z,52.90
2018-07-15T19:22:19.241Z,53.80
2018-07-15T19:24:48.200Z,53.80
2018-07-15T19:27:17.158Z,53.40
2018-07-15T19:29:46.107Z,53.70
2018-07-15T19:32:15.104Z,53.70
2018-07-15T19:34:43.931Z,53.70
2018-07-15T19:37:12.870Z,54.10
2018-07-15T19:39:41.827Z,54.00
2018-07-15T19:44:39.329Z,54.40
2018-07-15T19:49:36.793Z,55.10
2018-07-15T19:52:05.743Z,54.80
2018-07-15T19:54:34.691Z,55.30
2018-07-15T19:57:03.573Z,56.00
2018-07-15T19:59:32.517Z,55.60
2018-07-15T20:02:01.518Z,55.60
2018-07-15T20:04:30.436Z,55.60
2018-07-15T20:06:59.360Z,55.40
2018-07-15T20:09:28.251Z,55.90
2018-07-15T20:11:57.170Z,57.00
2018-07-15T20:14:26.339Z,55.80
2018-07-15T20:16:55.184Z,56.90
2018-07-15T20:19:24.834Z,57.10
2018-07-15T20:21:53.857Z,56.70
2018-07-15T20:24:22.742Z,56.90
2018-07-15T20:26:51.724Z,57.30
2018-07-15T20:29:20.623Z,57.20
2018-07-15T20:31:49.553Z,57.60
2018-07-15T20:34:18.426Z,57.40
2018-07-15T20:36:47.429Z,57.90
2018-07-15T20:39:16.535Z,58.70
2018-07-15T20:44:14.041Z,58.40
2018-07-15T20:46:43.102Z,58.50
2018-07-15T20:49:12.032Z,58.50
2018-07-15T20:51:40.933Z,58.70
2018-07-15T20:56:38.347Z,59.40
2018-07-15T20:59:07.194Z,58.60
2018-07-15T21:01:36.188Z,59.40
2018-07-15T21:04:05.575Z,58.40
2018-07-15T21:06:34.701Z,59.80
2018-07-15T21:09:04.602Z,59.60
2018-07-15T21:11:33.785Z,60.10
2018-07-15T21:14:02.639Z,60.20
2018-07-15T21:16:31.556Z,59.60
2018-07-15T21:19:00.459Z,58.90
2018-07-15T21:21:29.452Z,59.40
2018-07-15T21:23:58.452Z,59.70
2018-07-15T21:26:27.529Z,59.60
2018-07-15T21:28:56.417Z,59.80
2018-07-15T21:31:25.337Z,60.00
2018-07-15T21:33:54.248Z,59.30
2018-07-15T21:36:23.185Z,59.80
2018-07-15T21:38:52.136Z,59.80
2018-07-15T21:41:21.652Z,60.20
2018-07-15T21:43:50.612Z,60.00
2018-07-15T21:46:19.535Z,60.50
2018-07-15T21:48:48.452Z,61.30
2018-07-15T21:51:17.441Z,60.10
2018-07-15T21:53:46.255Z,61.50
2018-07-15T21:56:15.221Z,61.60
2018-07-15T21:58:44.076Z,61.70
2018-07-15T22:01:12.940Z,61.20
2018-07-15T22:03:41.876Z,62.90
2018-07-15T22:06:21.868Z,62.10
2018-07-15T22:09:01.897Z,62.20
2018-07-15T22:11:31.083Z,62.20
2018-07-15T22:14:00.030Z,62.30
2018-07-15T22:16:28.941Z,63.20
2018-07-15T22:18:57.961Z,62.90
2018-07-15T22:21:26.897Z,62.80
2018-07-15T22:23:55.857Z,63.30
2018-07-15T22:26:24.736Z,64.90
2018-07-15T22:28:53.625Z,65.40
2018-07-15T22:31:22.623Z,64.90
2018-07-15T22:33:51.687Z,65.00
2018-07-15T22:36:20.617Z,65.90
2018-07-15T22:38:49.547Z,65.30
2018-07-15T22:41:18.485Z,65.30
2018-07-15T22:43:47.375Z,65.20
2018-07-15T22:46:16.460Z,65.70
2018-07-15T22:48:45.388Z,65.50
2018-07-15T22:51:14.263Z,65.90
2018-07-15T22:53:43.215Z,66.50
2018-07-15T22:56:12.247Z,65.00
2018-07-15T22:58:41.132Z,66.20
2018-07-15T23:01:10.129Z,65.40
2018-07-15T23:03:39.166Z,66.30
2018-07-15T23:06:16.378Z,67.30
2018-07-15T23:08:45.277Z,68.20
2018-07-15T23:11:14.276Z,67.20
2018-07-15T23:16:11.624Z,66.90
2018-07-15T23:18:40.596Z,67.30
2018-07-15T23:21:09.444Z,67.30
2018-07-15T23:23:38.356Z,67.70
2018-07-15T23:26:07.254Z,69.30
2018-07-15T23:28:36.600Z,68.40
2018-07-15T23:31:05.585Z,68.60
2018-07-15T23:33:34.576Z,70.00
2018-07-15T23:36:03.486Z,69.30
2018-07-15T23:38:32.468Z,69.10
2018-07-15T23:41:01.460Z,69.60
2018-07-15T23:43:30.403Z,70.20
2018-07-15T23:45:59.401Z,69.80
2018-07-15T23:48:28.259Z,70.50
2018-07-15T23:50:57.172Z,70.40
2018-07-15T23:53:26.046Z,70.00
2018-07-15T23:55:54.909Z,70.50
2018-07-15T23:58:23.818Z,69.20
